sensor_id;sensor_type;location;lat;lon;timestamp;pressure;altitude;pressure_sealevel;temperature;humidity
11971;BME280;6045;42.682;23.294;2023-02-28T00:00:00;95075.22;;;8.39;93.83
11971;BME280;6045;42.682;23.294;2023-02-28T00:02:28;95070.47;;;8.21;94.16
11971;BME280;6045;42.682;23.294;2023-02-28T00:04:55;95070.88;;;8.12;95.12
11971;BME280;6045;42.682;23.294;2023-02-28T00:07:26;95076.78;;;8.01;95.52
11971;BME280;6045;42.682;23.294;2023-02-28T00:09:53;95077.38;;;7.90;95.90
11971;BME280;6045;42.682;23.294;2023-02-28T00:12:20;95077.59;;;7.88;96.64
11971;BME280;6045;42.682;23.294;2023-02-28T00:14:48;95072.72;;;7.98;96.83
11971;BME280;6045;42.682;23.294;2023-02-28T00:17:15;95074.56;;;8.17;96.82
11971;BME280;6045;42.682;23.294;2023-02-28T00:19:43;95074.22;;;8.34;96.26
11971;BME280;6045;42.682;23.294;2023-02-28T00:22:10;95092.63;;;8.48;95.50
11971;BME280;6045;42.682;23.294;2023-02-28T00:24:36;95100.63;;;8.68;94.66
11971;BME280;6045;42.682;23.294;2023-02-28T00:27:03;95109.84;;;8.65;94.37
11971;BME280;6045;42.682;23.294;2023-02-28T00:29:30;95109.22;;;8.83;93.83
11971;BME280;6045;42.682;23.294;2023-02-28T00:31:58;95095.84;;;9.03;92.53
11971;BME280;6045;42.682;23.294;2023-02-28T00:34:25;95094.81;;;9.10;91.71
11971;BME280;6045;42.682;23.294;2023-02-28T00:36:52;95086.41;;;9.07;91.68
11971;BME280;6045;42.682;23.294;2023-02-28T00:39:19;95096.03;;;9.14;91.20
11971;BME280;6045;42.682;23.294;2023-02-28T00:42:03;95086.38;;;9.20;91.41
11971;BME280;6045;42.682;23.294;2023-02-28T00:44:30;95099.91;;;9.12;91.13
11971;BME280;6045;42.682;23.294;2023-02-28T00:46:59;95100.91;;;9.24;91.25
11971;BME280;6045;42.682;23.294;2023-02-28T00:49:27;95098.63;;;9.34;90.47
11971;BME280;6045;42.682;23.294;2023-02-28T00:51:54;95088.19;;;9.26;90.19
11971;BME280;6045;42.682;23.294;2023-02-28T00:54:22;95082.69;;;9.14;90.06
11971;BME280;6045;42.682;23.294;2023-02-28T00:56:49;95089.25;;;9.12;90.15
11971;BME280;6045;42.682;23.294;2023-02-28T00:59:16;95083.91;;;9.25;89.97
11971;BME280;6045;42.682;23.294;2023-02-28T01:01:45;95091.28;;;9.16;89.95
11971;BME280;6045;42.682;23.294;2023-02-28T01:04:14;95077.41;;;9.01;90.54
11971;BME280;6045;42.682;23.294;2023-02-28T01:06:41;95083.91;;;9.12;90.64
11971;BME280;6045;42.682;23.294;2023-02-28T01:09:08;95083.47;;;9.21;90.16
11971;BME280;6045;42.682;23.294;2023-02-28T01:11:35;95083.47;;;9.21;89.77
11971;BME280;6045;42.682;23.294;2023-02-28T01:14:02;95087.81;;;9.22;89.08
11971;BME280;6045;42.682;23.294;2023-02-28T01:16:30;95086.16;;;9.28;88.85
11971;BME280;6045;42.682;23.294;2023-02-28T01:18:57;95086.78;;;9.17;88.52
11971;BME280;6045;42.682;23.294;2023-02-28T01:21:25;95079.81;;;9.16;88.76
11971;BME280;6045;42.682;23.294;2023-02-28T01:23:52;95083.28;;;9.16;88.24
11971;BME280;6045;42.682;23.294;2023-02-28T01:26:22;95083.13;;;9.11;88.50
11971;BME280;6045;42.682;23.294;2023-02-28T01:28:50;95074.94;;;9.06;88.51
11971;BME280;6045;42.682;23.294;2023-02-28T01:31:18;95079.66;;;8.98;88.97
11971;BME280;6045;42.682;23.294;2023-02-28T01:33:46;95076.81;;;8.92;88.87
11971;BME280;6045;42.682;23.294;2023-02-28T01:36:15;95081.72;;;8.89;88.87
11971;BME280;6045;42.682;23.294;2023-02-28T01:38:43;95077.00;;;8.91;88.47
11971;BME280;6045;42.682;23.294;2023-02-28T01:41:15;95083.59;;;8.82;88.16
11971;BME280;6045;42.682;23.294;2023-02-28T01:44:04;95087.47;;;8.86;88.64
11971;BME280;6045;42.682;23.294;2023-02-28T01:46:32;95093.44;;;8.68;88.51
11971;BME280;6045;42.682;23.294;2023-02-28T01:49:06;95084.84;;;8.73;89.32
11971;BME280;6045;42.682;23.294;2023-02-28T01:51:37;95101.22;;;8.76;88.81
11971;BME280;6045;42.682;23.294;2023-02-28T01:54:16;95097.53;;;8.71;88.29
11971;BME280;6045;42.682;23.294;2023-02-28T01:56:47;95088.53;;;8.46;87.97
11971;BME280;6045;42.682;23.294;2023-02-28T01:59:21;95095.28;;;8.68;87.67
11971;BME280;6045;42.682;23.294;2023-02-28T02:01:48;95082.38;;;8.52;87.42
11971;BME280;6045;42.682;23.294;2023-02-28T02:04:16;95098.59;;;8.57;87.42
11971;BME280;6045;42.682;23.294;2023-02-28T02:06:44;95094.88;;;8.32;87.89
11971;BME280;6045;42.682;23.294;2023-02-28T02:09:13;95082.34;;;8.25;88.86
11971;BME280;6045;42.682;23.294;2023-02-28T02:11:42;95094.63;;;8.13;89.27
11971;BME280;6045;42.682;23.294;2023-02-28T02:14:36;95081.94;;;8.02;90.54
11971;BME280;6045;42.682;23.294;2023-02-28T02:17:26;95083.97;;;8.20;91.00
11971;BME280;6045;42.682;23.294;2023-02-28T02:20:19;95085.41;;;8.22;90.88
11971;BME280;6045;42.682;23.294;2023-02-28T02:23:07;95081.94;;;8.22;91.27
11971;BME280;6045;42.682;23.294;2023-02-28T02:25:45;95075.16;;;8.06;90.81
11971;BME280;6045;42.682;23.294;2023-02-28T02:28:34;95075.78;;;8.08;91.45
11971;BME280;6045;42.682;23.294;2023-02-28T02:31:24;95086.63;;;8.00;91.57
11971;BME280;6045;42.682;23.294;2023-02-28T02:34:30;95088.06;;;8.16;91.81
11971;BME280;6045;42.682;23.294;2023-02-28T02:37:18;95086.47;;;8.21;91.06
11971;BME280;6045;42.682;23.294;2023-02-28T02:39:52;95085.63;;;8.14;91.41
11971;BME280;6045;42.682;23.294;2023-02-28T02:42:24;95086.44;;;8.08;91.10
11971;BME280;6045;42.682;23.294;2023-02-28T02:44:59;95093.44;;;8.29;91.03
11971;BME280;6045;42.682;23.294;2023-02-28T02:47:30;95104.50;;;8.46;89.98
11971;BME280;6045;42.682;23.294;2023-02-28T02:50:02;95091.19;;;8.46;90.22
11971;BME280;6045;42.682;23.294;2023-02-28T02:52:34;95094.88;;;8.58;89.24
11971;BME280;6045;42.682;23.294;2023-02-28T02:55:04;95100.03;;;8.59;89.08
11971;BME280;6045;42.682;23.294;2023-02-28T02:57:35;95089.75;;;8.63;89.04
11971;BME280;6045;42.682;23.294;2023-02-28T03:00:05;95101.22;;;8.70;88.25
11971;BME280;6045;42.682;23.294;2023-02-28T03:02:35;95100.63;;;8.55;88.17
11971;BME280;6045;42.682;23.294;2023-02-28T03:05:08;95101.44;;;8.55;88.86
11971;BME280;6045;42.682;23.294;2023-02-28T03:07:39;95110.03;;;8.51;88.70
11971;BME280;6045;42.682;23.294;2023-02-28T03:10:27;95112.53;;;8.52;88.93
11971;BME280;6045;42.682;23.294;2023-02-28T03:13:03;95124.59;;;8.42;89.24
11971;BME280;6045;42.682;23.294;2023-02-28T03:15:39;95117.22;;;8.57;88.79
11971;BME280;6045;42.682;23.294;2023-02-28T03:18:15;95133.59;;;8.67;88.20
11971;BME280;6045;42.682;23.294;2023-02-28T03:20:51;95128.88;;;8.62;87.82
11971;BME280;6045;42.682;23.294;2023-02-28T03:23:26;95138.34;;;8.52;88.61
11971;BME280;6045;42.682;23.294;2023-02-28T03:26:02;95134.44;;;8.61;89.26
11971;BME280;6045;42.682;23.294;2023-02-28T03:28:36;95129.53;;;8.71;88.80
11971;BME280;6045;42.682;23.294;2023-02-28T03:31:12;95137.53;;;8.64;88.49
11971;BME280;6045;42.682;23.294;2023-02-28T03:33:44;95140.19;;;8.77;88.44
11971;BME280;6045;42.682;23.294;2023-02-28T03:36:24;95145.09;;;8.87;87.70
11971;BME280;6045;42.682;23.294;2023-02-28T03:38:56;95140.56;;;8.94;87.06
11971;BME280;6045;42.682;23.294;2023-02-28T03:41:31;95145.91;;;8.94;86.61
11971;BME280;6045;42.682;23.294;2023-02-28T03:44:03;95149.19;;;8.89;86.66
11971;BME280;6045;42.682;23.294;2023-02-28T03:46:34;95145.91;;;8.94;86.61
11971;BME280;6045;42.682;23.294;2023-02-28T03:49:06;95150.41;;;8.87;86.41
11971;BME280;6045;42.682;23.294;2023-02-28T03:51:38;95154.09;;;8.86;86.83
11971;BME280;6045;42.682;23.294;2023-02-28T03:54:09;95156.16;;;8.97;86.88
11971;BME280;6045;42.682;23.294;2023-02-28T03:56:45;95152.88;;;8.88;86.80
11971;BME280;6045;42.682;23.294;2023-02-28T03:59:17;95154.72;;;8.68;87.95
11971;BME280;6045;42.682;23.294;2023-02-28T04:01:46;95160.25;;;8.80;87.86
11971;BME280;6045;42.682;23.294;2023-02-28T04:04:15;95158.63;;;8.79;87.84
11971;BME280;6045;42.682;23.294;2023-02-28T04:06:44;95164.56;;;8.74;88.04
11971;BME280;6045;42.682;23.294;2023-02-28T04:09:13;95155.56;;;8.75;88.35
11971;BME280;6045;42.682;23.294;2023-02-28T04:11:42;95149.41;;;8.75;88.44
11971;BME280;6045;42.682;23.294;2023-02-28T04:14:11;95151.88;;;8.83;88.26
11971;BME280;6045;42.682;23.294;2023-02-28T04:16:40;95148.56;;;10.53;100.00
11971;BME280;6045;42.682;23.294;2023-02-28T04:19:07;95148.94;;;11.31;100.00
11971;BME280;6045;42.682;23.294;2023-02-28T04:21:36;95145.63;;;11.53;100.00
11971;BME280;6045;42.682;23.294;2023-02-28T04:24:06;95139.84;;;11.14;92.53
11971;BME280;6045;42.682;23.294;2023-02-28T04:26:34;95148.72;;;10.89;83.70
11971;BME280;6045;42.682;23.294;2023-02-28T04:29:03;95148.31;;;10.61;81.77
11971;BME280;6045;42.682;23.294;2023-02-28T04:31:30;95148.63;;;10.47;81.51
11971;BME280;6045;42.682;23.294;2023-02-28T04:33:57;95158.28;;;10.10;81.43
11971;BME280;6045;42.682;23.294;2023-02-28T04:36:23;95156.19;;;9.61;83.17
11971;BME280;6045;42.682;23.294;2023-02-28T04:38:50;95153.16;;;9.57;84.23
11971;BME280;6045;42.682;23.294;2023-02-28T04:41:19;95157.28;;;9.53;84.02
11971;BME280;6045;42.682;23.294;2023-02-28T04:43:46;95163.47;;;9.34;84.77
11971;BME280;6045;42.682;23.294;2023-02-28T04:46:13;95161.06;;;9.13;85.02
11971;BME280;6045;42.682;23.294;2023-02-28T04:48:40;95174.19;;;8.95;85.31
11971;BME280;6045;42.682;23.294;2023-02-28T04:51:11;95180.34;;;8.89;86.10
11971;BME280;6045;42.682;23.294;2023-02-28T04:53:39;95178.31;;;8.71;88.61
11971;BME280;6045;42.682;23.294;2023-02-28T04:56:09;95180.75;;;8.60;88.90
11971;BME280;6045;42.682;23.294;2023-02-28T04:58:38;95187.31;;;8.70;88.47
11971;BME280;6045;42.682;23.294;2023-02-28T05:01:13;95180.75;;;8.73;87.98
11971;BME280;6045;42.682;23.294;2023-02-28T05:03:42;95179.94;;;8.59;87.71
11971;BME280;6045;42.682;23.294;2023-02-28T05:06:10;95183.00;;;8.50;88.35
11971;BME280;6045;42.682;23.294;2023-02-28T05:08:37;95180.13;;;8.58;92.92
11971;BME280;6045;42.682;23.294;2023-02-28T05:11:06;95177.06;;;8.48;92.19
11971;BME280;6045;42.682;23.294;2023-02-28T05:13:34;95188.34;;;8.50;91.01
11971;BME280;6045;42.682;23.294;2023-02-28T05:16:02;95178.72;;;8.62;91.96
11971;BME280;6045;42.682;23.294;2023-02-28T05:18:29;95189.56;;;8.67;90.50
11971;BME280;6045;42.682;23.294;2023-02-28T05:20:56;95182.19;;;8.75;89.63
11971;BME280;6045;42.682;23.294;2023-02-28T05:23:23;95190.19;;;8.82;89.93
11971;BME280;6045;42.682;23.294;2023-02-28T05:25:49;95191.31;;;10.22;100.00
11971;BME280;6045;42.682;23.294;2023-02-28T05:28:17;95196.78;;;10.96;100.00
11971;BME280;6045;42.682;23.294;2023-02-28T05:30:44;95193.25;;;11.45;96.42
11971;BME280;6045;42.682;23.294;2023-02-28T05:33:13;95200.31;;;12.00;87.47
11971;BME280;6045;42.682;23.294;2023-02-28T05:35:40;95206.53;;;12.30;79.27
11971;BME280;6045;42.682;23.294;2023-02-28T05:38:07;95205.69;;;12.00;75.00
11971;BME280;6045;42.682;23.294;2023-02-28T05:40:34;95199.59;;;11.75;74.33
11971;BME280;6045;42.682;23.294;2023-02-28T05:43:00;95208.72;;;11.43;74.77
11971;BME280;6045;42.682;23.294;2023-02-28T05:45:27;95217.63;;;11.19;75.71
11971;BME280;6045;42.682;23.294;2023-02-28T05:47:55;95217.59;;;10.63;77.70
11971;BME280;6045;42.682;23.294;2023-02-28T05:50:23;95216.28;;;10.41;79.70
11971;BME280;6045;42.682;23.294;2023-02-28T05:52:51;95222.28;;;10.29;80.19
11971;BME280;6045;42.682;23.294;2023-02-28T05:55:18;95224.22;;;10.09;80.46
11971;BME280;6045;42.682;23.294;2023-02-28T05:57:44;95224.50;;;9.88;81.47
11971;BME280;6045;42.682;23.294;2023-02-28T06:00:12;95224.16;;;9.65;82.15
11971;BME280;6045;42.682;23.294;2023-02-28T06:02:40;95226.44;;;9.48;83.43
11971;BME280;6045;42.682;23.294;2023-02-28T06:05:11;95225.00;;;9.52;83.78
11971;BME280;6045;42.682;23.294;2023-02-28T06:07:41;95223.97;;;9.53;83.70
11971;BME280;6045;42.682;23.294;2023-02-28T06:10:09;95217.00;;;9.46;83.42
11971;BME280;6045;42.682;23.294;2023-02-28T06:12:37;95215.16;;;9.46;83.66
11971;BME280;6045;42.682;23.294;2023-02-28T06:15:05;95222.97;;;9.28;84.41
11971;BME280;6045;42.682;23.294;2023-02-28T06:17:31;95212.75;;;9.25;84.90
11971;BME280;6045;42.682;23.294;2023-02-28T06:19:58;95219.28;;;9.16;85.42
11971;BME280;6045;42.682;23.294;2023-02-28T06:22:25;95221.97;;;9.16;85.70
11971;BME280;6045;42.682;23.294;2023-02-28T06:24:53;95226.88;;;9.26;86.28
11971;BME280;6045;42.682;23.294;2023-02-28T06:27:20;95221.31;;;9.40;85.54
11971;BME280;6045;42.682;23.294;2023-02-28T06:29:47;95223.38;;;9.51;85.83
11971;BME280;6045;42.682;23.294;2023-02-28T06:32:14;95227.47;;;9.47;88.50
11971;BME280;6045;42.682;23.294;2023-02-28T06:34:41;95236.50;;;9.53;89.55
11971;BME280;6045;42.682;23.294;2023-02-28T06:37:08;95237.94;;;9.55;89.37
11971;BME280;6045;42.682;23.294;2023-02-28T06:39:34;95238.53;;;9.57;87.98
11971;BME280;6045;42.682;23.294;2023-02-28T06:42:03;95239.97;;;9.67;86.57
11971;BME280;6045;42.682;23.294;2023-02-28T06:44:30;95243.03;;;9.77;85.79
11971;BME280;6045;42.682;23.294;2023-02-28T06:47:01;95245.88;;;9.88;85.28
11971;BME280;6045;42.682;23.294;2023-02-28T06:49:29;95243.00;;;9.83;83.87
11971;BME280;6045;42.682;23.294;2023-02-28T06:51:56;95242.13;;;9.89;82.99
11971;BME280;6045;42.682;23.294;2023-02-28T06:54:22;95250.34;;;9.94;82.13
11971;BME280;6045;42.682;23.294;2023-02-28T06:56:49;95250.75;;;9.98;81.67
11971;BME280;6045;42.682;23.294;2023-02-28T06:59:18;95252.19;;;10.00;81.90
11971;BME280;6045;42.682;23.294;2023-02-28T07:01:44;95245.19;;;9.99;81.39
11971;BME280;6045;42.682;23.294;2023-02-28T07:04:11;95253.03;;;9.94;81.09
11971;BME280;6045;42.682;23.294;2023-02-28T07:06:38;95250.34;;;10.01;81.70
11971;BME280;6045;42.682;23.294;2023-02-28T07:09:05;95253.88;;;9.88;81.98
11971;BME280;6045;42.682;23.294;2023-02-28T07:11:32;95253.66;;;9.90;82.28
11971;BME280;6045;42.682;23.294;2023-02-28T07:13:59;95248.75;;;9.80;82.56
11971;BME280;6045;42.682;23.294;2023-02-28T07:16:27;95236.84;;;9.83;83.01
11971;BME280;6045;42.682;23.294;2023-02-28T07:18:54;95246.31;;;9.72;83.05
11971;BME280;6045;42.682;23.294;2023-02-28T07:21:21;95250.47;;;9.48;84.32
11971;BME280;6045;42.682;23.294;2023-02-28T07:23:49;95244.75;;;9.25;85.35
11971;BME280;6045;42.682;23.294;2023-02-28T07:26:17;95253.16;;;9.29;86.11
11971;BME280;6045;42.682;23.294;2023-02-28T07:28:46;95255.81;;;9.35;85.85
11971;BME280;6045;42.682;23.294;2023-02-28T07:31:14;95249.84;;;9.46;84.86
11971;BME280;6045;42.682;23.294;2023-02-28T07:33:44;95253.56;;;9.32;85.63
11971;BME280;6045;42.682;23.294;2023-02-28T07:36:12;95242.47;;;9.35;85.86
11971;BME280;6045;42.682;23.294;2023-02-28T07:38:45;95252.09;;;9.43;85.04
11971;BME280;6045;42.682;23.294;2023-02-28T07:41:14;95250.47;;;9.42;85.20
11971;BME280;6045;42.682;23.294;2023-02-28T07:43:41;95257.63;;;9.68;91.22
11971;BME280;6045;42.682;23.294;2023-02-28T07:46:11;95258.22;;;9.76;88.62
11971;BME280;6045;42.682;23.294;2023-02-28T07:48:40;95248.19;;;9.58;86.15
11971;BME280;6045;42.682;23.294;2023-02-28T07:51:09;95250.47;;;9.48;85.47
11971;BME280;6045;42.682;23.294;2023-02-28T07:53:35;95253.34;;;9.53;86.94
11971;BME280;6045;42.682;23.294;2023-02-28T07:56:03;95241.72;;;10.05;96.45
11971;BME280;6045;42.682;23.294;2023-02-28T07:58:30;95245.69;;;10.34;94.53
11971;BME280;6045;42.682;23.294;2023-02-28T08:00:57;95250.88;;;10.29;87.92
11971;BME280;6045;42.682;23.294;2023-02-28T08:03:30;95247.66;;;10.89;98.27
11971;BME280;6045;42.682;23.294;2023-02-28T08:05:57;95238.84;;;11.14;91.90
11971;BME280;6045;42.682;23.294;2023-02-28T08:08:25;95236.09;;;11.20;87.01
11971;BME280;6045;42.682;23.294;2023-02-28T08:10:54;95243.75;;;11.17;81.72
11971;BME280;6045;42.682;23.294;2023-02-28T08:13:21;95246.59;;;11.22;79.95
11971;BME280;6045;42.682;23.294;2023-02-28T08:15:48;95253.75;;;11.28;79.41
11971;BME280;6045;42.682;23.294;2023-02-28T08:18:14;95249.56;;;10.82;79.79
11971;BME280;6045;42.682;23.294;2023-02-28T08:20:41;95245.16;;;10.63;81.95
11971;BME280;6045;42.682;23.294;2023-02-28T08:23:08;95249.28;;;10.59;82.88
11971;BME280;6045;42.682;23.294;2023-02-28T08:25:36;95247.50;;;10.47;82.87
11971;BME280;6045;42.682;23.294;2023-02-28T08:28:03;95257.16;;;10.48;83.24
11971;BME280;6045;42.682;23.294;2023-02-28T08:30:30;95246.84;;;10.51;83.41
11971;BME280;6045;42.682;23.294;2023-02-28T08:32:57;95256.94;;;10.49;83.91
11971;BME280;6045;42.682;23.294;2023-02-28T08:35:24;95259.91;;;10.28;84.36
11971;BME280;6045;42.682;23.294;2023-02-28T08:37:50;95249.47;;;10.20;85.81
11971;BME280;6045;42.682;23.294;2023-02-28T08:40:17;95257.44;;;10.33;86.29
11971;BME280;6045;42.682;23.294;2023-02-28T08:42:45;95252.09;;;10.33;85.12
11971;BME280;6045;42.682;23.294;2023-02-28T08:45:13;95253.97;;;10.26;84.91
11971;BME280;6045;42.682;23.294;2023-02-28T08:47:41;95256.72;;;10.00;85.29
11971;BME280;6045;42.682;23.294;2023-02-28T08:50:08;95255.84;;;10.06;87.04
11971;BME280;6045;42.682;23.294;2023-02-28T08:52:35;95250.69;;;10.17;86.23
11971;BME280;6045;42.682;23.294;2023-02-28T08:55:04;95253.59;;;10.16;86.04
11971;BME280;6045;42.682;23.294;2023-02-28T08:57:31;95257.91;;;10.04;85.39
11971;BME280;6045;42.682;23.294;2023-02-28T08:59:59;95265.41;;;9.69;86.43
11971;BME280;6045;42.682;23.294;2023-02-28T09:02:29;95266.50;;;9.42;87.31
11971;BME280;6045;42.682;23.294;2023-02-28T09:04:56;95263.81;;;9.35;89.20
11971;BME280;6045;42.682;23.294;2023-02-28T09:07:23;95255.41;;;9.25;89.46
11971;BME280;6045;42.682;23.294;2023-02-28T09:09:50;95252.72;;;9.38;89.92
11971;BME280;6045;42.682;23.294;2023-02-28T09:12:20;95253.75;;;9.44;89.60
11971;BME280;6045;42.682;23.294;2023-02-28T09:14:47;95256.63;;;9.49;90.54
11971;BME280;6045;42.682;23.294;2023-02-28T09:17:15;95251.25;;;9.62;89.89
11971;BME280;6045;42.682;23.294;2023-02-28T09:19:42;95258.25;;;9.50;89.89
11971;BME280;6045;42.682;23.294;2023-02-28T09:22:09;95252.72;;;9.38;90.10
11971;BME280;6045;42.682;23.294;2023-02-28T09:24:37;95257.03;;;9.52;90.30
11971;BME280;6045;42.682;23.294;2023-02-28T09:27:04;95260.28;;;9.54;89.56
11971;BME280;6045;42.682;23.294;2023-02-28T09:29:32;95251.69;;;9.46;89.25
11971;BME280;6045;42.682;23.294;2023-02-28T09:31:59;95245.31;;;9.47;89.37
11971;BME280;6045;42.682;23.294;2023-02-28T09:34:28;95250.06;;;9.51;89.41
11971;BME280;6045;42.682;23.294;2023-02-28T09:36:56;95246.72;;;9.69;89.68
11971;BME280;6045;42.682;23.294;2023-02-28T09:39:23;95251.25;;;9.69;88.74
11971;BME280;6045;42.682;23.294;2023-02-28T09:41:53;95251.63;;;9.79;88.75
11971;BME280;6045;42.682;23.294;2023-02-28T09:44:26;95246.06;;;9.80;88.46
11971;BME280;6045;42.682;23.294;2023-02-28T09:46:57;95242.16;;;9.96;88.59
11971;BME280;6045;42.682;23.294;2023-02-28T09:49:34;95250.31;;;10.14;88.97
11971;BME280;6045;42.682;23.294;2023-02-28T09:52:04;95244.94;;;10.20;88.54
11971;BME280;6045;42.682;23.294;2023-02-28T09:54:34;95239.53;;;10.40;89.60
11971;BME280;6045;42.682;23.294;2023-02-28T09:57:08;95234.50;;;10.57;88.99
11971;BME280;6045;42.682;23.294;2023-02-28T09:59:48;95242.66;;;10.68;86.88
11971;BME280;6045;42.682;23.294;2023-02-28T10:03:01;95235.06;;;10.65;86.10
11971;BME280;6045;42.682;23.294;2023-02-28T10:05:34;95235.63;;;10.74;86.43
11971;BME280;6045;42.682;23.294;2023-02-28T10:08:09;95228.16;;;10.82;86.76
11971;BME280;6045;42.682;23.294;2023-02-28T10:10:40;95226.59;;;10.99;86.63
11971;BME280;6045;42.682;23.294;2023-02-28T10:13:15;95224.31;;;11.28;85.93
11971;BME280;6045;42.682;23.294;2023-02-28T10:15:45;95216.16;;;11.41;84.36
11971;BME280;6045;42.682;23.294;2023-02-28T10:18:16;95214.41;;;11.53;84.45
11971;BME280;6045;42.682;23.294;2023-02-28T10:20:49;95202.63;;;11.79;82.53
11971;BME280;6045;42.682;23.294;2023-02-28T10:23:20;95216.34;;;11.64;82.74
11971;BME280;6045;42.682;23.294;2023-02-28T10:25:53;95206.81;;;11.75;81.13
11971;BME280;6045;42.682;23.294;2023-02-28T10:28:20;95195.69;;;11.71;80.64
11971;BME280;6045;42.682;23.294;2023-02-28T10:30:49;95197.03;;;11.80;80.20
11971;BME280;6045;42.682;23.294;2023-02-28T10:33:22;95206.53;;;11.58;80.03
11971;BME280;6045;42.682;23.294;2023-02-28T10:35:51;95202.88;;;11.52;79.95
11971;BME280;6045;42.682;23.294;2023-02-28T10:38:21;95187.13;;;11.62;80.22
11971;BME280;6045;42.682;23.294;2023-02-28T10:40:49;95185.97;;;11.77;79.91
11971;BME280;6045;42.682;23.294;2023-02-28T10:43:21;95176.00;;;11.84;78.57
11971;BME280;6045;42.682;23.294;2023-02-28T10:45:55;95183.81;;;12.03;77.61
11971;BME280;6045;42.682;23.294;2023-02-28T10:48:30;95168.94;;;12.37;76.76
11971;BME280;6045;42.682;23.294;2023-02-28T10:50:59;95169.47;;;12.57;75.46
11971;BME280;6045;42.682;23.294;2023-02-28T10:53:32;95156.47;;;12.84;75.26
11971;BME280;6045;42.682;23.294;2023-02-28T10:56:00;95153.75;;;13.14;73.11
11971;BME280;6045;42.682;23.294;2023-02-28T10:58:29;95149.56;;;13.41;72.75
11971;BME280;6045;42.682;23.294;2023-02-28T11:00:58;95147.69;;;13.53;70.95
11971;BME280;6045;42.682;23.294;2023-02-28T11:03:35;95136.81;;;13.48;72.33
11971;BME280;6045;42.682;23.294;2023-02-28T11:06:10;95150.09;;;13.89;70.61
11971;BME280;6045;42.682;23.294;2023-02-28T11:08:45;95131.88;;;14.31;68.62
11971;BME280;6045;42.682;23.294;2023-02-28T11:11:12;95137.41;;;14.53;66.49
11971;BME280;6045;42.682;23.294;2023-02-28T11:13:39;95133.69;;;14.42;67.25
11971;BME280;6045;42.682;23.294;2023-02-28T11:16:09;95142.78;;;14.53;66.80
11971;BME280;6045;42.682;23.294;2023-02-28T11:18:41;95136.16;;;14.60;66.01
11971;BME280;6045;42.682;23.294;2023-02-28T11:21:16;95137.88;;;14.50;66.51
11971;BME280;6045;42.682;23.294;2023-02-28T11:23:44;95125.91;;;14.29;66.30
11971;BME280;6045;42.682;23.294;2023-02-28T11:26:11;95129.44;;;14.58;67.01
11971;BME280;6045;42.682;23.294;2023-02-28T11:28:39;95127.41;;;14.81;66.11
11971;BME280;6045;42.682;23.294;2023-02-28T11:31:17;95129.13;;;15.21;68.22
11971;BME280;6045;42.682;23.294;2023-02-28T11:33:47;95119.47;;;15.41;68.07
11971;BME280;6045;42.682;23.294;2023-02-28T11:36:20;95117.19;;;15.50;63.20
11971;BME280;6045;42.682;23.294;2023-02-28T11:38:51;95125.13;;;14.90;64.10
11971;BME280;6045;42.682;23.294;2023-02-28T11:41:41;95110.38;;;15.09;65.21
11971;BME280;6045;42.682;23.294;2023-02-28T11:44:24;95121.13;;;15.26;63.54
11971;BME280;6045;42.682;23.294;2023-02-28T11:46:56;95116.41;;;14.99;63.57
11971;BME280;6045;42.682;23.294;2023-02-28T11:49:32;95109.38;;;14.98;65.18
11971;BME280;6045;42.682;23.294;2023-02-28T11:52:13;95108.97;;;15.40;64.48
11971;BME280;6045;42.682;23.294;2023-02-28T11:55:03;95113.50;;;15.94;62.05
11971;BME280;6045;42.682;23.294;2023-02-28T11:57:50;95112.56;;;16.54;60.37
11971;BME280;6045;42.682;23.294;2023-02-28T12:00:33;95102.41;;;17.19;58.04
11971;BME280;6045;42.682;23.294;2023-02-28T12:03:17;95102.50;;;16.71;57.95
11971;BME280;6045;42.682;23.294;2023-02-28T12:05:53;95102.94;;;16.58;58.84
11971;BME280;6045;42.682;23.294;2023-02-28T12:08:40;95100.13;;;16.79;58.45
11971;BME280;6045;42.682;23.294;2023-02-28T12:11:15;95107.00;;;16.38;59.80
11971;BME280;6045;42.682;23.294;2023-02-28T12:13:49;95107.38;;;16.25;59.50
11971;BME280;6045;42.682;23.294;2023-02-28T12:16:29;95108.31;;;15.71;60.68
11971;BME280;6045;42.682;23.294;2023-02-28T12:19:13;95100.75;;;15.68;61.30
11971;BME280;6045;42.682;23.294;2023-02-28T12:22:12;95095.94;;;15.70;61.57
11971;BME280;6045;42.682;23.294;2023-02-28T12:25:06;95103.94;;;15.65;63.82
11971;BME280;6045;42.682;23.294;2023-02-28T12:27:44;95110.28;;;15.54;61.20
11971;BME280;6045;42.682;23.294;2023-02-28T12:30:16;95101.59;;;15.68;61.67
11971;BME280;6045;42.682;23.294;2023-02-28T12:32:48;95099.81;;;15.79;60.53
11971;BME280;6045;42.682;23.294;2023-02-28T12:35:20;95098.50;;;15.82;60.09
11971;BME280;6045;42.682;23.294;2023-02-28T12:37:54;95094.38;;;15.74;60.25
11971;BME280;6045;42.682;23.294;2023-02-28T12:40:26;95097.03;;;15.36;60.48
11971;BME280;6045;42.682;23.294;2023-02-28T12:42:56;95097.63;;;14.71;61.96
11971;BME280;6045;42.682;23.294;2023-02-28T12:45:27;95106.34;;;14.05;65.00
11971;BME280;6045;42.682;23.294;2023-02-28T12:48:00;95107.22;;;13.83;66.27
11971;BME280;6045;42.682;23.294;2023-02-28T12:50:28;95090.94;;;13.61;66.99
11971;BME280;6045;42.682;23.294;2023-02-28T12:53:00;95100.75;;;13.44;67.48
11971;BME280;6045;42.682;23.294;2023-02-28T12:55:35;95096.13;;;13.16;68.81
11971;BME280;6045;42.682;23.294;2023-02-28T12:58:13;95099.56;;;12.93;68.90
11971;BME280;6045;42.682;23.294;2023-02-28T13:01:02;95086.16;;;13.05;69.47
11971;BME280;6045;42.682;23.294;2023-02-28T13:03:57;95091.91;;;13.09;68.41
11971;BME280;6045;42.682;23.294;2023-02-28T13:06:44;95087.09;;;12.87;69.33
11971;BME280;6045;42.682;23.294;2023-02-28T13:09:17;95085.25;;;13.11;69.49
11971;BME280;6045;42.682;23.294;2023-02-28T13:11:46;95083.41;;;13.23;67.66
11971;BME280;6045;42.682;23.294;2023-02-28T13:14:26;95091.19;;;13.25;67.63
11971;BME280;6045;42.682;23.294;2023-02-28T13:16:59;95089.91;;;13.27;67.82
11971;BME280;6045;42.682;23.294;2023-02-28T13:19:29;95084.88;;;13.31;68.77
11971;BME280;6045;42.682;23.294;2023-02-28T13:21:57;95084.91;;;13.42;67.97
11971;BME280;6045;42.682;23.294;2023-02-28T13:24:43;95077.75;;;13.36;67.21
11971;BME280;6045;42.682;23.294;2023-02-28T13:27:21;95084.19;;;13.12;67.78